TAF Text Data
IDs:
Format:
Raw Decoded Include METAR

Data at: 1726 UTC 20 May 2022

VVTS 201700Z 23004KT 200V270 9999 SCT017 FEW020CB 28/25 Q1008 NOSIG

TAF VVTS 201100Z 2012/2118 24010KT 9999 SCT017 BKN050
  BECMG 2017/2018 VRB03KT
  BECMG 2101/2102 25010KT
  TEMPO 2105/2111 25015G27KT 5000 TSRA SCT015 FEW017CB BKN040